sensor_id;sensor_type;location;lat;lon;timestamp;pressure;altitude;pressure_sealevel;temperature;humidity
48053;BME280;33824;51.600;5.718;2022-12-29T00:00:05;99920.00;;;11.93;98.75
48053;BME280;33824;51.600;5.718;2022-12-29T00:02:31;99923.25;;;11.95;98.71
48053;BME280;33824;51.600;5.718;2022-12-29T00:04:57;99902.50;;;11.91;98.88
48053;BME280;33824;51.600;5.718;2022-12-29T00:07:23;99891.00;;;11.84;99.24
48053;BME280;33824;51.600;5.718;2022-12-29T00:09:49;99896.75;;;11.74;99.71
48053;BME280;33824;51.600;5.718;2022-12-29T00:12:14;99896.09;;;11.66;99.78
48053;BME280;33824;51.600;5.718;2022-12-29T00:14:40;99890.56;;;11.67;99.11
48053;BME280;33824;51.600;5.718;2022-12-29T00:17:24;99892.19;;;11.55;99.24
48053;BME280;33824;51.600;5.718;2022-12-29T00:19:49;99905.94;;;11.52;99.12
48053;BME280;33824;51.600;5.718;2022-12-29T00:22:33;99906.31;;;11.49;98.52
48053;BME280;33824;51.600;5.718;2022-12-29T00:25:18;99900.38;;;11.40;98.77
48053;BME280;33824;51.600;5.718;2022-12-29T00:28:02;99898.91;;;11.25;100.00
48053;BME280;33824;51.600;5.718;2022-12-29T00:30:46;99889.81;;;11.13;100.00
48053;BME280;33824;51.600;5.718;2022-12-29T00:33:32;99889.97;;;10.98;100.00
48053;BME280;33824;51.600;5.718;2022-12-29T00:36:28;99883.38;;;10.87;100.00
48053;BME280;33824;51.600;5.718;2022-12-29T00:38:59;99878.66;;;10.89;100.00
48053;BME280;33824;51.600;5.718;2022-12-29T00:41:44;99873.13;;;10.91;100.00
48053;BME280;33824;51.600;5.718;2022-12-29T00:44:28;99886.25;;;10.86;100.00
48053;BME280;33824;51.600;5.718;2022-12-29T00:46:57;99863.41;;;10.77;100.00
48053;BME280;33824;51.600;5.718;2022-12-29T00:49:22;99875.94;;;10.76;100.00
48053;BME280;33824;51.600;5.718;2022-12-29T00:52:04;99892.94;;;10.69;100.00
48053;BME280;33824;51.600;5.718;2022-12-29T00:54:32;99870.00;;;10.81;100.00
48053;BME280;33824;51.600;5.718;2022-12-29T00:56:59;99869.41;;;10.85;100.00
48053;BME280;33824;51.600;5.718;2022-12-29T00:59:25;99850.16;;;10.90;100.00
48053;BME280;33824;51.600;5.718;2022-12-29T01:01:52;99861.88;;;10.95;100.00
48053;BME280;33824;51.600;5.718;2022-12-29T01:04:19;99854.72;;;11.02;100.00
48053;BME280;33824;51.600;5.718;2022-12-29T01:06:45;99856.56;;;11.08;100.00
48053;BME280;33824;51.600;5.718;2022-12-29T01:09:11;99836.66;;;11.11;100.00
48053;BME280;33824;51.600;5.718;2022-12-29T01:11:56;99841.41;;;11.16;100.00
48053;BME280;33824;51.600;5.718;2022-12-29T01:14:22;99836.47;;;11.19;100.00
48053;BME280;33824;51.600;5.718;2022-12-29T01:16:48;99843.06;;;11.23;100.00
48053;BME280;33824;51.600;5.718;2022-12-29T01:19:15;99844.09;;;11.29;100.00
48053;BME280;33824;51.600;5.718;2022-12-29T01:21:41;99837.75;;;11.30;100.00
48053;BME280;33824;51.600;5.718;2022-12-29T01:24:07;99830.34;;;11.32;100.00
48053;BME280;33824;51.600;5.718;2022-12-29T01:26:33;99822.75;;;11.29;100.00
48053;BME280;33824;51.600;5.718;2022-12-29T01:28:58;99838.34;;;11.32;100.00
48053;BME280;33824;51.600;5.718;2022-12-29T01:31:24;99841.84;;;11.39;100.00
48053;BME280;33824;51.600;5.718;2022-12-29T01:33:49;99834.25;;;11.42;100.00
48053;BME280;33824;51.600;5.718;2022-12-29T01:36:16;99826.88;;;11.44;100.00
48053;BME280;33824;51.600;5.718;2022-12-29T01:38:42;99813.72;;;11.43;100.00
48053;BME280;33824;51.600;5.718;2022-12-29T01:41:10;99820.09;;;11.42;100.00
48053;BME280;33824;51.600;5.718;2022-12-29T01:43:45;99804.28;;;11.40;100.00
48053;BME280;33824;51.600;5.718;2022-12-29T01:46:23;99811.47;;;11.33;100.00
48053;BME280;33824;51.600;5.718;2022-12-29T01:48:54;99817.81;;;11.39;100.00
48053;BME280;33824;51.600;5.718;2022-12-29T01:51:22;99807.38;;;11.44;100.00
48053;BME280;33824;51.600;5.718;2022-12-29T01:53:48;99815.56;;;11.49;100.00
48053;BME280;33824;51.600;5.718;2022-12-29T01:56:17;99808.59;;;11.48;100.00
48053;BME280;33824;51.600;5.718;2022-12-29T01:58:46;99812.50;;;11.59;100.00
48053;BME280;33824;51.600;5.718;2022-12-29T02:01:15;99811.91;;;11.63;100.00
48053;BME280;33824;51.600;5.718;2022-12-29T02:03:42;99814.75;;;11.68;100.00
48053;BME280;33824;51.600;5.718;2022-12-29T02:06:15;99818.03;;;11.57;100.00
48053;BME280;33824;51.600;5.718;2022-12-29T02:08:42;99811.06;;;11.69;100.00
48053;BME280;33824;51.600;5.718;2022-12-29T02:11:12;99818.28;;;11.75;100.00
48053;BME280;33824;51.600;5.718;2022-12-29T02:13:38;99801.63;;;11.80;100.00
48053;BME280;33824;51.600;5.718;2022-12-29T02:19:05;99815.63;;;11.82;99.19
48053;BME280;33824;51.600;5.718;2022-12-29T02:30:07;99809.63;;;11.80;95.29
48053;BME280;33824;51.600;5.718;2022-12-29T02:35:20;99815.59;;;11.95;97.10
48053;BME280;33824;51.600;5.718;2022-12-29T02:37:59;99814.16;;;11.92;96.27
48053;BME280;33824;51.600;5.718;2022-12-29T02:40:51;99805.34;;;11.85;94.57
48053;BME280;33824;51.600;5.718;2022-12-29T02:43:26;99801.41;;;11.88;95.13
48053;BME280;33824;51.600;5.718;2022-12-29T02:46:04;99799.81;;;11.87;95.14
48053;BME280;33824;51.600;5.718;2022-12-29T02:51:55;99814.38;;;11.78;95.20
48053;BME280;33824;51.600;5.718;2022-12-29T02:54:23;99789.72;;;11.89;95.75
48053;BME280;33824;51.600;5.718;2022-12-29T02:57:13;99800.00;;;11.85;95.43
48053;BME280;33824;51.600;5.718;2022-12-29T02:59:39;99800.19;;;11.51;96.01
48053;BME280;33824;51.600;5.718;2022-12-29T03:02:28;99786.84;;;11.77;96.64
48053;BME280;33824;51.600;5.718;2022-12-29T03:05:15;99791.19;;;11.72;95.93
48053;BME280;33824;51.600;5.718;2022-12-29T03:07:57;99775.53;;;11.69;95.65
48053;BME280;33824;51.600;5.718;2022-12-29T03:10:48;99779.44;;;11.73;95.58
48053;BME280;33824;51.600;5.718;2022-12-29T03:13:43;99781.50;;;11.64;95.18
48053;BME280;33824;51.600;5.718;2022-12-29T03:16:31;99772.47;;;11.85;95.63
48053;BME280;33824;51.600;5.718;2022-12-29T03:19:14;99766.31;;;11.78;94.70
48053;BME280;33824;51.600;5.718;2022-12-29T03:21:47;99780.06;;;11.88;95.00
48053;BME280;33824;51.600;5.718;2022-12-29T03:24:40;99773.72;;;11.82;94.97
48053;BME280;33824;51.600;5.718;2022-12-29T03:27:10;99774.13;;;11.86;94.93
48053;BME280;33824;51.600;5.718;2022-12-29T03:29:50;99784.59;;;11.81;94.30
48053;BME280;33824;51.600;5.718;2022-12-29T03:32:26;99775.31;;;11.83;94.84
48053;BME280;33824;51.600;5.718;2022-12-29T03:34:54;99771.63;;;11.91;94.43
48053;BME280;33824;51.600;5.718;2022-12-29T03:37:25;99781.31;;;11.85;94.60
48053;BME280;33824;51.600;5.718;2022-12-29T03:39:51;99768.34;;;11.89;94.84
48053;BME280;33824;51.600;5.718;2022-12-29T03:42:19;99767.13;;;11.85;94.87
48053;BME280;33824;51.600;5.718;2022-12-29T03:44:48;99774.91;;;11.80;95.43
48053;BME280;33824;51.600;5.718;2022-12-29T03:47:14;99765.88;;;11.81;95.61
48053;BME280;33824;51.600;5.718;2022-12-29T03:49:41;99760.16;;;11.77;95.60
48053;BME280;33824;51.600;5.718;2022-12-29T03:52:06;99764.06;;;11.75;95.85
48053;BME280;33824;51.600;5.718;2022-12-29T03:54:32;99770.63;;;11.72;95.55
48053;BME280;33824;51.600;5.718;2022-12-29T03:56:58;99776.78;;;11.73;95.33
48053;BME280;33824;51.600;5.718;2022-12-29T03:59:23;99781.31;;;11.72;95.52
48053;BME280;33824;51.600;5.718;2022-12-29T04:01:49;99760.94;;;11.65;95.08
48053;BME280;33824;51.600;5.718;2022-12-29T04:04:15;99779.03;;;11.69;94.68
48053;BME280;33824;51.600;5.718;2022-12-29T04:06:41;99773.06;;;11.67;94.45
48053;BME280;33824;51.600;5.718;2022-12-29T04:09:06;99776.56;;;11.68;93.91
48053;BME280;33824;51.600;5.718;2022-12-29T04:11:32;99781.69;;;11.69;94.00
48053;BME280;33824;51.600;5.718;2022-12-29T04:13:58;99805.72;;;11.69;93.69
48053;BME280;33824;51.600;5.718;2022-12-29T04:16:23;99787.63;;;11.65;94.28
48053;BME280;33824;51.600;5.718;2022-12-29T04:18:49;99795.25;;;11.61;94.67
48053;BME280;33824;51.600;5.718;2022-12-29T04:21:14;99790.13;;;11.46;95.65
48053;BME280;33824;51.600;5.718;2022-12-29T04:23:40;99776.38;;;11.36;97.05
48053;BME280;33824;51.600;5.718;2022-12-29T04:26:06;99781.72;;;11.30;97.76
48053;BME280;33824;51.600;5.718;2022-12-29T04:28:33;99797.09;;;11.15;98.93
48053;BME280;33824;51.600;5.718;2022-12-29T04:30:58;99795.63;;;11.05;99.29
48053;BME280;33824;51.600;5.718;2022-12-29T04:33:24;99804.00;;;10.96;99.63
48053;BME280;33824;51.600;5.718;2022-12-29T04:35:51;99798.03;;;10.87;100.00
48053;BME280;33824;51.600;5.718;2022-12-29T04:38:18;99795.75;;;10.84;99.97
48053;BME280;33824;51.600;5.718;2022-12-29T04:40:44;99798.22;;;10.86;100.00
48053;BME280;33824;51.600;5.718;2022-12-29T04:43:10;99809.50;;;10.81;99.94
48053;BME280;33824;51.600;5.718;2022-12-29T04:45:36;99810.75;;;10.85;99.56
48053;BME280;33824;51.600;5.718;2022-12-29T04:48:02;99803.34;;;10.81;98.86
48053;BME280;33824;51.600;5.718;2022-12-29T04:50:27;99818.72;;;10.72;98.43
48053;BME280;33824;51.600;5.718;2022-12-29T04:52:53;99819.50;;;10.66;98.30
48053;BME280;33824;51.600;5.718;2022-12-29T04:55:19;99812.97;;;10.69;97.92
48053;BME280;33824;51.600;5.718;2022-12-29T04:57:44;99813.34;;;10.66;97.34
48053;BME280;33824;51.600;5.718;2022-12-29T05:00:11;99821.72;;;10.63;96.69
48053;BME280;33824;51.600;5.718;2022-12-29T05:02:37;99813.72;;;10.56;96.41
48053;BME280;33824;51.600;5.718;2022-12-29T05:05:04;99814.31;;;10.58;96.27
48053;BME280;33824;51.600;5.718;2022-12-29T05:07:29;99822.31;;;10.51;96.11
48053;BME280;33824;51.600;5.718;2022-12-29T05:09:55;99832.13;;;10.51;95.77
48053;BME280;33824;51.600;5.718;2022-12-29T05:12:21;99830.31;;;10.51;95.67
48053;BME280;33824;51.600;5.718;2022-12-29T05:14:46;99828.03;;;10.48;95.18
48053;BME280;33824;51.600;5.718;2022-12-29T05:17:12;99835.22;;;10.48;94.47
48053;BME280;33824;51.600;5.718;2022-12-29T05:19:37;99844.44;;;10.45;94.40
48053;BME280;33824;51.600;5.718;2022-12-29T05:22:03;99825.38;;;10.48;93.92
48053;BME280;33824;51.600;5.718;2022-12-29T05:24:29;99853.84;;;10.41;94.08
48053;BME280;33824;51.600;5.718;2022-12-29T05:26:55;99853.41;;;10.38;93.98
48053;BME280;33824;51.600;5.718;2022-12-29T05:29:20;99858.72;;;10.38;94.23
48053;BME280;33824;51.600;5.718;2022-12-29T05:31:46;99871.66;;;10.41;93.68
48053;BME280;33824;51.600;5.718;2022-12-29T05:34:12;99852.75;;;10.36;93.63
48053;BME280;33824;51.600;5.718;2022-12-29T05:36:37;99855.00;;;10.32;93.37
48053;BME280;33824;51.600;5.718;2022-12-29T05:39:03;99875.56;;;10.38;93.79
48053;BME280;33824;51.600;5.718;2022-12-29T05:41:29;99868.63;;;10.50;92.83
48053;BME280;33824;51.600;5.718;2022-12-29T05:43:55;99883.03;;;10.56;93.22
48053;BME280;33824;51.600;5.718;2022-12-29T05:46:20;99890.84;;;10.57;93.19
48053;BME280;33824;51.600;5.718;2022-12-29T05:48:46;99885.94;;;10.68;92.93
48053;BME280;33824;51.600;5.718;2022-12-29T05:51:11;99889.03;;;10.71;92.67
48053;BME280;33824;51.600;5.718;2022-12-29T05:53:37;99883.53;;;10.73;91.99
48053;BME280;33824;51.600;5.718;2022-12-29T05:56:02;99876.53;;;10.72;91.21
48053;BME280;33824;51.600;5.718;2022-12-29T05:58:28;99864.47;;;10.76;90.57
48053;BME280;33824;51.600;5.718;2022-12-29T06:00:53;99892.16;;;10.81;89.75
48053;BME280;33824;51.600;5.718;2022-12-29T06:03:19;99891.16;;;10.82;89.04
48053;BME280;33824;51.600;5.718;2022-12-29T06:05:45;99893.22;;;10.87;89.18
48053;BME280;33824;51.600;5.718;2022-12-29T06:08:12;99887.50;;;10.90;87.49
48053;BME280;33824;51.600;5.718;2022-12-29T06:10:37;99893.25;;;11.00;85.98
48053;BME280;33824;51.600;5.718;2022-12-29T06:13:03;99902.91;;;11.01;85.88
48053;BME280;33824;51.600;5.718;2022-12-29T06:15:31;99893.91;;;11.08;85.84
48053;BME280;33824;51.600;5.718;2022-12-29T06:17:57;99892.06;;;11.09;85.65
48053;BME280;33824;51.600;5.718;2022-12-29T06:20:22;99888.38;;;11.10;85.84
48053;BME280;33824;51.600;5.718;2022-12-29T06:22:48;99894.34;;;11.12;86.12
48053;BME280;33824;51.600;5.718;2022-12-29T06:25:14;99903.81;;;11.15;86.44
48053;BME280;33824;51.600;5.718;2022-12-29T06:27:40;99901.56;;;11.18;85.42
48053;BME280;33824;51.600;5.718;2022-12-29T06:30:07;99903.97;;;11.06;85.54
48053;BME280;33824;51.600;5.718;2022-12-29T06:32:35;99906.44;;;11.08;84.75
48053;BME280;33824;51.600;5.718;2022-12-29T06:35:02;99881.81;;;11.06;84.97
48053;BME280;33824;51.600;5.718;2022-12-29T06:37:29;99901.31;;;11.06;85.11
48053;BME280;33824;51.600;5.718;2022-12-29T06:39:54;99886.31;;;11.05;84.88
48053;BME280;33824;51.600;5.718;2022-12-29T06:42:20;99880.16;;;11.12;84.35
48053;BME280;33824;51.600;5.718;2022-12-29T06:44:45;99882.41;;;11.08;84.24
48053;BME280;33824;51.600;5.718;2022-12-29T06:47:13;99873.81;;;11.06;83.08
48053;BME280;33824;51.600;5.718;2022-12-29T06:49:38;99865.59;;;11.07;81.74
48053;BME280;33824;51.600;5.718;2022-12-29T06:52:04;99866.22;;;11.03;82.02
48053;BME280;33824;51.600;5.718;2022-12-29T06:54:30;99866.81;;;10.98;81.91
48053;BME280;33824;51.600;5.718;2022-12-29T06:56:57;99881.78;;;10.99;81.07
48053;BME280;33824;51.600;5.718;2022-12-29T06:59:31;99874.59;;;11.00;79.95
48053;BME280;33824;51.600;5.718;2022-12-29T07:01:57;99875.84;;;11.04;79.57
48053;BME280;33824;51.600;5.718;2022-12-29T07:04:22;99877.69;;;11.03;79.35
48053;BME280;33824;51.600;5.718;2022-12-29T07:06:54;99875.00;;;10.97;79.41
48053;BME280;33824;51.600;5.718;2022-12-29T07:09:20;99879.91;;;11.00;80.19
48053;BME280;33824;51.600;5.718;2022-12-29T07:11:46;99879.53;;;11.03;80.23
48053;BME280;33824;51.600;5.718;2022-12-29T07:14:11;99881.59;;;11.07;79.57
48053;BME280;33824;51.600;5.718;2022-12-29T07:16:37;99897.84;;;11.19;79.95
48053;BME280;33824;51.600;5.718;2022-12-29T07:19:03;99917.56;;;11.18;80.87
48053;BME280;33824;51.600;5.718;2022-12-29T07:21:29;99915.31;;;11.22;81.08
48053;BME280;33824;51.600;5.718;2022-12-29T07:23:55;99924.34;;;11.27;80.56
48053;BME280;33824;51.600;5.718;2022-12-29T07:26:21;99920.66;;;11.28;81.36
48053;BME280;33824;51.600;5.718;2022-12-29T07:28:46;99925.59;;;11.31;79.53
48053;BME280;33824;51.600;5.718;2022-12-29T07:31:17;99924.75;;;11.24;78.96
48053;BME280;33824;51.600;5.718;2022-12-29T07:33:44;99931.94;;;11.30;79.28
48053;BME280;33824;51.600;5.718;2022-12-29T07:36:10;99933.00;;;11.36;77.76
48053;BME280;33824;51.600;5.718;2022-12-29T07:38:36;99957.84;;;11.36;77.84
48053;BME280;33824;51.600;5.718;2022-12-29T07:41:02;99947.59;;;11.40;78.16
48053;BME280;33824;51.600;5.718;2022-12-29T07:43:27;99958.03;;;11.28;78.39
48053;BME280;33824;51.600;5.718;2022-12-29T07:45:53;99955.75;;;11.25;77.54
48053;BME280;33824;51.600;5.718;2022-12-29T07:48:19;99959.63;;;11.16;77.85
48053;BME280;33824;51.600;5.718;2022-12-29T07:50:44;99966.19;;;11.20;76.70
48053;BME280;33824;51.600;5.718;2022-12-29T07:53:10;99963.28;;;11.15;76.79
48053;BME280;33824;51.600;5.718;2022-12-29T07:55:35;99959.63;;;11.16;76.22
48053;BME280;33824;51.600;5.718;2022-12-29T07:58:01;99953.25;;;11.17;76.69
48053;BME280;33824;51.600;5.718;2022-12-29T08:00:27;99965.38;;;11.20;77.01
48053;BME280;33824;51.600;5.718;2022-12-29T08:02:52;99947.53;;;11.20;77.17
48053;BME280;33824;51.600;5.718;2022-12-29T08:05:18;99959.22;;;11.19;77.49
48053;BME280;33824;51.600;5.718;2022-12-29T08:07:44;99951.59;;;11.16;77.89
48053;BME280;33824;51.600;5.718;2022-12-29T08:10:10;99966.44;;;11.25;77.89
48053;BME280;33824;51.600;5.718;2022-12-29T08:12:40;99966.22;;;11.27;77.68
48053;BME280;33824;51.600;5.718;2022-12-29T08:15:07;99960.88;;;11.27;78.10
48053;BME280;33824;51.600;5.718;2022-12-29T08:17:32;99966.84;;;11.29;77.48
48053;BME280;33824;51.600;5.718;2022-12-29T08:19:58;99970.56;;;11.34;77.44
48053;BME280;33824;51.600;5.718;2022-12-29T08:22:24;99967.28;;;11.32;77.60
48053;BME280;33824;51.600;5.718;2022-12-29T08:24:50;99962.78;;;11.39;76.55
48053;BME280;33824;51.600;5.718;2022-12-29T08:27:15;99980.88;;;11.44;76.36
48053;BME280;33824;51.600;5.718;2022-12-29T08:29:41;99992.38;;;11.44;75.63
48053;BME280;33824;51.600;5.718;2022-12-29T08:32:06;99976.38;;;11.44;75.83
48053;BME280;33824;51.600;5.718;2022-12-29T08:34:32;99954.78;;;11.39;75.40
48053;BME280;33824;51.600;5.718;2022-12-29T08:36:58;99966.28;;;11.40;74.66
48053;BME280;33824;51.600;5.718;2022-12-29T08:39:24;99978.63;;;11.41;75.25
48053;BME280;33824;51.600;5.718;2022-12-29T08:41:49;99977.16;;;11.38;74.46
48053;BME280;33824;51.600;5.718;2022-12-29T08:44:15;99979.41;;;11.41;74.60
48053;BME280;33824;51.600;5.718;2022-12-29T08:46:40;99954.38;;;11.42;74.40
48053;BME280;33824;51.600;5.718;2022-12-29T08:49:06;99979.44;;;11.48;73.88
48053;BME280;33824;51.600;5.718;2022-12-29T08:51:32;99979.88;;;11.51;75.10
48053;BME280;33824;51.600;5.718;2022-12-29T08:53:58;99970.25;;;11.64;75.11
48053;BME280;33824;51.600;5.718;2022-12-29T08:56:23;99982.97;;;11.68;73.97
48053;BME280;33824;51.600;5.718;2022-12-29T08:58:50;99989.38;;;11.67;74.59
48053;BME280;33824;51.600;5.718;2022-12-29T09:01:16;99989.97;;;11.69;74.94
48053;BME280;33824;51.600;5.718;2022-12-29T09:03:42;99980.78;;;11.72;74.62
48053;BME280;33824;51.600;5.718;2022-12-29T09:06:07;99980.13;;;11.70;74.19
48053;BME280;33824;51.600;5.718;2022-12-29T09:08:33;99973.13;;;11.69;74.04
48053;BME280;33824;51.600;5.718;2022-12-29T09:11:17;99972.06;;;11.56;73.61
48053;BME280;33824;51.600;5.718;2022-12-29T09:13:43;99963.28;;;11.69;73.70
48053;BME280;33824;51.600;5.718;2022-12-29T09:16:09;99980.97;;;11.77;73.72
48053;BME280;33824;51.600;5.718;2022-12-29T09:18:35;99982.00;;;11.76;73.75
48053;BME280;33824;51.600;5.718;2022-12-29T09:21:03;99982.63;;;11.71;73.18
48053;BME280;33824;51.600;5.718;2022-12-29T09:23:30;99980.56;;;11.73;73.43
48053;BME280;33824;51.600;5.718;2022-12-29T09:25:56;99976.06;;;11.80;73.11
48053;BME280;33824;51.600;5.718;2022-12-29T09:28:22;99998.06;;;11.82;73.14
48053;BME280;33824;51.600;5.718;2022-12-29T09:30:48;99992.72;;;11.82;73.77
48053;BME280;33824;51.600;5.718;2022-12-29T09:33:17;100001.53;;;11.76;73.63
48053;BME280;33824;51.600;5.718;2022-12-29T09:35:45;100001.16;;;11.79;73.40
48053;BME280;33824;51.600;5.718;2022-12-29T09:38:15;100005.44;;;11.80;74.27
48053;BME280;33824;51.600;5.718;2022-12-29T09:40:44;100022.84;;;11.63;75.54
48053;BME280;33824;51.600;5.718;2022-12-29T09:43:22;100015.59;;;11.50;75.62
48053;BME280;33824;51.600;5.718;2022-12-29T09:46:09;100021.31;;;11.41;75.10
48053;BME280;33824;51.600;5.718;2022-12-29T09:48:41;100032.84;;;11.54;76.09
48053;BME280;33824;51.600;5.718;2022-12-29T09:51:11;100033.03;;;11.53;76.02
48053;BME280;33824;51.600;5.718;2022-12-29T09:54:03;100023.56;;;11.37;75.26
48053;BME280;33824;51.600;5.718;2022-12-29T09:56:36;100030.78;;;11.56;75.94
48053;BME280;33824;51.600;5.718;2022-12-29T09:59:09;100032.44;;;11.51;76.00
48053;BME280;33824;51.600;5.718;2022-12-29T10:04:30;100051.13;;;11.51;77.05
48053;BME280;33824;51.600;5.718;2022-12-29T10:07:22;100055.19;;;11.40;77.61
48053;BME280;33824;51.600;5.718;2022-12-29T10:10:23;100044.44;;;11.27;79.17
48053;BME280;33824;51.600;5.718;2022-12-29T10:13:01;100058.19;;;11.24;79.88
48053;BME280;33824;51.600;5.718;2022-12-29T10:16:02;100060.69;;;10.98;80.74
48053;BME280;33824;51.600;5.718;2022-12-29T10:18:48;100068.44;;;10.93;81.66
48053;BME280;33824;51.600;5.718;2022-12-29T10:23:52;100071.63;;;11.03;81.64
48053;BME280;33824;51.600;5.718;2022-12-29T10:26:20;100083.00;;;10.90;84.34
48053;BME280;33824;51.600;5.718;2022-12-29T10:28:57;100080.44;;;10.76;85.02
48053;BME280;33824;51.600;5.718;2022-12-29T10:31:32;100097.06;;;10.78;85.78
48053;BME280;33824;51.600;5.718;2022-12-29T10:34:02;100100.50;;;10.72;85.94
48053;BME280;33824;51.600;5.718;2022-12-29T10:36:39;100102.88;;;10.60;87.76
48053;BME280;33824;51.600;5.718;2022-12-29T10:44:34;100131.34;;;10.59;89.44
48053;BME280;33824;51.600;5.718;2022-12-29T10:47:07;100141.97;;;10.53;89.45
48053;BME280;33824;51.600;5.718;2022-12-29T10:49:40;100139.16;;;10.40;90.73
48053;BME280;33824;51.600;5.718;2022-12-29T10:52:08;100107.63;;;10.43;91.81
48053;BME280;33824;51.600;5.718;2022-12-29T10:57:28;100157.59;;;10.20;93.31
48053;BME280;33824;51.600;5.718;2022-12-29T10:59:57;100150.50;;;10.12;95.32
48053;BME280;33824;51.600;5.718;2022-12-29T11:02:47;100150.75;;;9.96;95.59
48053;BME280;33824;51.600;5.718;2022-12-29T11:08:04;100161.16;;;10.12;95.67
48053;BME280;33824;51.600;5.718;2022-12-29T11:13:01;100178.19;;;10.26;94.01
48053;BME280;33824;51.600;5.718;2022-12-29T11:15:28;100175.03;;;10.37;92.90
48053;BME280;33824;51.600;5.718;2022-12-29T11:18:03;100177.75;;;10.44;92.96
48053;BME280;33824;51.600;5.718;2022-12-29T11:20:39;100180.13;;;10.39;92.91
48053;BME280;33824;51.600;5.718;2022-12-29T11:23:29;100186.66;;;10.15;93.71
48053;BME280;33824;51.600;5.718;2022-12-29T11:26:15;100181.34;;;10.15;94.71
48053;BME280;33824;51.600;5.718;2022-12-29T11:28:44;100195.56;;;10.07;96.36
48053;BME280;33824;51.600;5.718;2022-12-29T11:31:15;100192.44;;;10.04;96.41
48053;BME280;33824;51.600;5.718;2022-12-29T11:33:42;100190.47;;;10.12;96.86
48053;BME280;33824;51.600;5.718;2022-12-29T11:36:11;100192.50;;;10.10;96.37
48053;BME280;33824;51.600;5.718;2022-12-29T11:38:47;100196.84;;;10.11;96.12
48053;BME280;33824;51.600;5.718;2022-12-29T11:41:21;100196.00;;;10.11;95.53
48053;BME280;33824;51.600;5.718;2022-12-29T11:43:47;100199.13;;;10.29;94.93
48053;BME280;33824;51.600;5.718;2022-12-29T11:46:25;100198.47;;;10.27;93.86
48053;BME280;33824;51.600;5.718;2022-12-29T11:48:52;100197.41;;;10.43;93.26
48053;BME280;33824;51.600;5.718;2022-12-29T11:51:23;100199.91;;;10.44;91.94
48053;BME280;33824;51.600;5.718;2022-12-29T11:53:54;100189.38;;;10.57;91.34
48053;BME280;33824;51.600;5.718;2022-12-29T11:56:36;100220.38;;;10.44;89.95
48053;BME280;33824;51.600;5.718;2022-12-29T12:01:53;100204.22;;;10.67;89.64
48053;BME280;33824;51.600;5.718;2022-12-29T12:04:26;100209.13;;;10.63;89.14
48053;BME280;33824;51.600;5.718;2022-12-29T12:10:02;100213.00;;;10.61;88.54
48053;BME280;33824;51.600;5.718;2022-12-29T12:12:38;100219.97;;;10.62;88.62
48053;BME280;33824;51.600;5.718;2022-12-29T12:15:13;100221.50;;;10.71;88.06
48053;BME280;33824;51.600;5.718;2022-12-29T12:17:49;100213.44;;;10.64;88.13
48053;BME280;33824;51.600;5.718;2022-12-29T12:20:21;100213.88;;;10.68;88.74
48053;BME280;33824;51.600;5.718;2022-12-29T12:23:02;100205.22;;;10.66;87.80
48053;BME280;33824;51.600;5.718;2022-12-29T12:25:48;100222.06;;;10.66;87.28
48053;BME280;33824;51.600;5.718;2022-12-29T12:34:13;100228.81;;;10.83;85.61
48053;BME280;33824;51.600;5.718;2022-12-29T12:39:27;100226.66;;;10.93;85.55
48053;BME280;33824;51.600;5.718;2022-12-29T12:47:46;100232.69;;;11.02;82.88
48053;BME280;33824;51.600;5.718;2022-12-29T12:50:32;100234.13;;;11.04;81.95
48053;BME280;33824;51.600;5.718;2022-12-29T12:53:11;100234.88;;;11.20;81.02
48053;BME280;33824;51.600;5.718;2022-12-29T12:56:13;100237.25;;;11.08;80.64
48053;BME280;33824;51.600;5.718;2022-12-29T12:58:59;100212.69;;;11.19;80.47
48053;BME280;33824;51.600;5.718;2022-12-29T13:07:12;100229.16;;;11.50;80.82
48053;BME280;33824;51.600;5.718;2022-12-29T13:09:48;100234.66;;;11.42;79.32
48053;BME280;33824;51.600;5.718;2022-12-29T13:20:47;100246.25;;;11.28;77.89
48053;BME280;33824;51.600;5.718;2022-12-29T13:34:01;100271.59;;;10.39;87.38
48053;BME280;33824;51.600;5.718;2022-12-29T13:36:53;100263.44;;;10.11;90.89
48053;BME280;33824;51.600;5.718;2022-12-29T13:39:23;100261.94;;;10.09;91.95
48053;BME280;33824;51.600;5.718;2022-12-29T13:41:54;100265.81;;;10.06;93.62
48053;BME280;33824;51.600;5.718;2022-12-29T13:44:35;100277.31;;;9.92;94.38
48053;BME280;33824;51.600;5.718;2022-12-29T13:49:38;100295.28;;;9.90;95.85
48053;BME280;33824;51.600;5.718;2022-12-29T13:55:00;100305.06;;;9.60;98.53
48053;BME280;33824;51.600;5.718;2022-12-29T14:00:20;100306.50;;;9.48;98.50
48053;BME280;33824;51.600;5.718;2022-12-29T14:02:52;100294.25;;;9.62;99.40
48053;BME280;33824;51.600;5.718;2022-12-29T14:08:04;100298.06;;;9.45;99.17
48053;BME280;33824;51.600;5.718;2022-12-29T14:10:36;100307.50;;;9.47;99.54
48053;BME280;33824;51.600;5.718;2022-12-29T14:15:39;100299.19;;;9.50;99.26
48053;BME280;33824;51.600;5.718;2022-12-29T14:18:15;100303.16;;;9.54;98.78
48053;BME280;33824;51.600;5.718;2022-12-29T14:23:42;100309.25;;;9.55;98.46
48053;BME280;33824;51.600;5.718;2022-12-29T14:29:41;100308.00;;;9.51;98.78
48053;BME280;33824;51.600;5.718;2022-12-29T14:32:07;100309.19;;;9.63;99.57
48053;BME280;33824;51.600;5.718;2022-12-29T14:34:48;100296.25;;;9.60;99.43
48053;BME280;33824;51.600;5.718;2022-12-29T14:37:28;100299.66;;;9.54;98.78
48053;BME280;33824;51.600;5.718;2022-12-29T14:40:17;100306.34;;;9.50;98.68
48053;BME280;33824;51.600;5.718;2022-12-29T14:42:44;100304.06;;;9.61;99.07
48053;BME280;33824;51.600;5.718;2022-12-29T14:47:41;100313.53;;;9.64;98.64
48053;BME280;33824;51.600;5.718;2022-12-29T14:50:15;100317.91;;;9.57;98.28
48053;BME280;33824;51.600;5.718;2022-12-29T14:52:50;100316.09;;;9.57;97.85
48053;BME280;33824;51.600;5.718;2022-12-29T14:55:46;100323.81;;;9.67;97.31
48053;BME280;33824;51.600;5.718;2022-12-29T14:58:19;100325.28;;;9.70;96.91